AirNav   Air Wisconsin Up To $57,000 Bonus
 
 706 users online  

3TX7 Flying P Airport
Justin, Texas, USA

GOING TO JUSTIN?


FAA INFORMATION EFFECTIVE 11 AUGUST 2022

Location

FAA Identifier: 3TX7
Lat/Long: 33-08-27.0000N 097-22-16.0000W
33-08.450000N 097-22.266667W
33.1408333,-97.3711111
(estimated)
Elevation: 805 ft. / 245 m (estimated)
Variation: 07E (1985)
From city: 5 miles NW of JUSTIN, TX
Time zone: UTC -5 (UTC -6 during Standard Time)
Zip code: 76247

Airport Operations

Airport use: Private use. Permission required prior to landing
Activation date: 04/1971
Control tower: no
ARTCC: FORT WORTH CENTER
FSS: FORT WORTH FLIGHT SERVICE STATION
Attendance: UNATNDD
Wind indicator: yes
Segmented circle: no

Airport Communications

WX ASOS at DTO (9 nm NE): 119.325 (940-383-8457)
WX ASOS at AFW (9 nm S): PHONE 817-491-6188
WX AWOS-3 at LUD (13 nm NW): 118.225 (940-627-2365)
WX ASOS at FTW (19 nm S): PHONE 817-740-3346

Nearby radio navigation aids

VOR radial/distance  VOR name  Freq  Var
FUZr321/17.9RANGER VORTAC115.7006E
TTTr308/23.3MAVERICK VOR/DME113.1006E
CVEr297/27.9COWBOY VOR/DME116.2006E
UKWr130/32.7BOWIE VORTAC117.1506E

 
NDB name  Hdg/Dist  Freq  Var  ID
PINCK222/12.225704EDT -.. -
MUFIN352/14.936508EFT ..-. -

Airport Services

Airframe service: NONE
Powerplant service: NONE

Runway Information

Runway N/S

Dimensions: 2800 x 100 ft. / 853 x 30 m
Surface: turf
RUNWAY N  RUNWAY S
Traffic pattern: leftleft
Obstructions: none30 ft. trees

Airport Ownership and Management from official FAA records

Ownership: Privately-owned
Owner: JERRY POCKRUS
BOX 841
JUSTIN, TX 76247
Phone 940-648-8689
Manager: JERRY POCKRUS
BOX 841
JUSTIN, TX 76247
Phone 940-648-8689

Airport Operational Statistics

Aircraft based on the field: 1
Single engine airplanes: 1
    

Additional Remarks

FOR CD CTC REGIONAL APCH AT 972-615-2799.

Instrument Procedures

There are no published instrument procedures at 3TX7.

Some nearby airports with instrument procedures:

KDTO - Denton Enterprise Airport (9 nm NE)
KAFW - Fort Worth Alliance Airport (9 nm S)
4T2 - Kenneth Copeland Airport (12 nm SW)
KLUD - Decatur Municipal Airport (13 nm NW)
KFTW - Fort Worth Meacham International Airport (19 nm S)
 
Loc | Ops | Rwys | IFR | FBO | Links
Com | Nav | Svcs | Stats | Notes

City of Fort Worth
 
Area around 3TX7 (Flying P Airport)
 
Road maps at: MapQuest Bing Google
 
Aerial photo
No photo
 
Sectional chart

 
Airport distance calculator
Flying to Flying P Airport? Find the distance to fly.

From to 3TX7

Sunrise and sunset
Times for 17-Aug-2022
 Local
(UTC-5)
 Zulu
(UTC)
Morning civil twilight06:2911:29
Sunrise06:5511:55
Sunset20:1201:12
Evening civil twilight20:3801:38

Current date and time
Zulu (UTC)  17-Aug-2022 05:27:27
Local (UTC-5)  17-Aug-2022 00:27:27
 
METAR
KDTO 
9nm E 
170453Z AUTO 00000KT 10SM CLR 29/18 A2989 RMK AO2 SLP112 T02890178
KAFW 
11nm S 
170453Z 19007KT 10SM BKN250 33/16 A2988 RMK AO2 SLP098 T03280161
KLUD 
13nm NW 
118.22 940-927-2365
170515Z AUTO 19008KT 10SM CLR 32/15 A2993 RMK AO2 T03150152
KFTW 
18nm S 
170453Z 19005KT 10SM CLR 30/17 A2990 RMK AO2 SLP112 T03000172
TAF
KAFW 
11nm S 
170248Z 1703/1724 19007KT P6SM BKN250 FM171500 32010KT P6SM SCT100 BKN250 FM172200 35010KT P6SM VCTS BKN100CB
KFTW 
18nm S 
170248Z 1703/1724 18006KT P6SM BKN250 FM171500 32010KT P6SM SCT100 BKN250 FM172200 35010KT P6SM VCTS BKN100CB
NOTAMs
Click for the latest NOTAMs
NOTAMs are issued by the DoD/FAA and will open in a separate window not controlled by AirNav.

 

 
 

Would you like to see your business listed on this page?

 If your business provides an interesting product or service to pilots, flight crews, aircraft, or users of the Flying P Airport, you should consider listing it here.  To start the listing process, click on the button below
 
Add a business
 

Other Pages about Flying P Airport

Update a link
 
Copyright © AirNav, LLC. All rights reserved. Privacy Policy  Contact